createdAt,value
2023-02-09T00:02:54.305Z,14.45
2023-02-09T00:07:56.356Z,12.48
2023-02-09T00:13:16.646Z,12.68
2023-02-09T00:18:18.520Z,14.27
2023-02-09T00:23:20.187Z,12.30
2023-02-09T00:28:21.976Z,14.95
2023-02-09T00:33:26.708Z,14.05
2023-02-09T00:38:28.468Z,13.77
2023-02-09T00:43:30.153Z,14.45
2023-02-09T00:48:32.161Z,13.18
2023-02-09T00:53:33.897Z,11.20
2023-02-09T00:58:35.539Z,13.65
2023-02-09T01:03:37.398Z,13.35
2023-02-09T01:08:39.000Z,12.57
2023-02-09T01:13:41.295Z,12.75
2023-02-09T01:18:43.700Z,12.50
2023-02-09T01:23:47.122Z,13.73
2023-02-09T01:28:53.472Z,13.02
2023-02-09T01:33:57.851Z,12.70
2023-02-09T01:39:03.702Z,12.95
2023-02-09T01:44:11.493Z,12.52
2023-02-09T01:49:21.145Z,13.73
2023-02-09T01:54:27.117Z,13.25
2023-02-09T01:59:29.795Z,13.95
2023-02-09T02:04:32.401Z,12.57
2023-02-09T02:09:34.304Z,11.85
2023-02-09T02:14:37.835Z,14.95
2023-02-09T02:19:58.093Z,15.05
2023-02-09T02:25:37.943Z,14.65
2023-02-09T02:31:17.515Z,15.02
2023-02-09T02:36:42.639Z,14.80
2023-02-09T02:42:17.050Z,13.68
2023-02-09T02:47:20.868Z,12.88
2023-02-09T02:52:22.830Z,14.05
2023-02-09T02:57:31.197Z,13.13
2023-02-09T03:02:48.148Z,14.18
2023-02-09T03:07:50.585Z,15.90
2023-02-09T03:13:07.877Z,15.10
2023-02-09T03:18:32.864Z,16.60
2023-02-09T03:24:11.122Z,14.45
2023-02-09T03:29:15.696Z,14.90
2023-02-09T03:34:18.317Z,13.77
2023-02-09T03:39:20.046Z,14.00
2023-02-09T03:44:27.748Z,12.98
2023-02-09T03:49:35.013Z,15.32
2023-02-09T03:54:37.185Z,16.40
2023-02-09T03:59:39.695Z,16.15
2023-02-09T04:09:43.304Z,14.27
2023-02-09T04:14:45.056Z,15.93
2023-02-09T04:19:46.806Z,14.50
2023-02-09T04:24:48.465Z,13.82
2023-02-09T04:29:50.228Z,13.88
2023-02-09T04:34:51.834Z,15.35
2023-02-09T04:39:53.694Z,12.68
2023-02-09T04:44:55.382Z,13.95
2023-02-09T04:49:57.135Z,13.13
2023-02-09T04:54:58.768Z,13.00
2023-02-09T05:00:00.429Z,13.48
2023-02-09T05:05:02.261Z,14.50
2023-02-09T05:10:04.172Z,16.13
2023-02-09T05:15:06.062Z,13.80
2023-02-09T05:20:08.763Z,14.65
2023-02-09T05:25:10.448Z,16.25
2023-02-09T05:30:12.464Z,17.88
2023-02-09T05:35:14.330Z,15.57
2023-02-09T05:40:16.151Z,14.45
2023-02-09T05:45:18.002Z,13.07
2023-02-09T05:50:19.848Z,14.18
2023-02-09T05:55:21.496Z,17.48
2023-02-09T06:00:24.979Z,14.40
2023-02-09T06:05:27.176Z,14.80
2023-02-09T06:10:29.120Z,13.02
2023-02-09T06:15:30.918Z,14.75
2023-02-09T06:20:32.685Z,14.80
2023-02-09T06:25:34.414Z,14.15
2023-02-09T06:30:36.198Z,12.45
2023-02-09T06:35:37.816Z,12.98
2023-02-09T06:40:39.576Z,14.13
2023-02-09T06:45:41.385Z,17.38
2023-02-09T06:50:43.166Z,13.50
2023-02-09T06:55:44.998Z,15.05
2023-02-09T07:00:46.947Z,18.13
2023-02-09T07:05:48.888Z,14.00
2023-02-09T07:10:50.572Z,14.18
2023-02-09T07:15:57.108Z,20.10
2023-02-09T07:21:01.735Z,16.05
2023-02-09T07:26:05.955Z,20.80
2023-02-09T07:31:10.307Z,18.35
2023-02-09T07:36:14.032Z,16.45
2023-02-09T07:41:19.398Z,14.48
2023-02-09T07:46:22.755Z,17.90
2023-02-09T07:51:28.715Z,21.48
2023-02-09T07:56:30.504Z,17.27
2023-02-09T08:01:33.754Z,23.70
2023-02-09T08:06:43.201Z,18.85
2023-02-09T08:11:53.169Z,18.63
2023-02-09T08:17:20.080Z,18.08
2023-02-09T08:22:24.838Z,21.80
2023-02-09T08:27:26.905Z,24.20
2023-02-09T08:32:28.770Z,24.40
2023-02-09T08:37:31.269Z,28.92
2023-02-09T08:42:33.178Z,25.25
2023-02-09T08:47:35.001Z,25.90
2023-02-09T08:52:36.672Z,30.90
2023-02-09T08:57:44.015Z,37.50
2023-02-09T09:02:46.349Z,35.53
2023-02-09T09:07:48.277Z,35.58
2023-02-09T09:12:51.822Z,30.25
2023-02-09T09:17:53.568Z,34.63
2023-02-09T09:22:59.326Z,35.63
2023-02-09T09:28:01.503Z,32.63
2023-02-09T09:33:04.221Z,33.28
2023-02-09T09:43:19.174Z,33.92
2023-02-09T09:48:26.831Z,33.75
2023-02-09T09:53:36.706Z,38.17
2023-02-09T09:58:44.183Z,39.80
2023-02-09T10:03:45.848Z,41.85
2023-02-09T10:09:03.181Z,37.47
2023-02-09T10:14:04.833Z,45.35
2023-02-09T10:19:17.232Z,42.63
2023-02-09T10:24:30.712Z,42.38
2023-02-09T10:29:32.427Z,52.22
2023-02-09T10:34:46.461Z,41.30
2023-02-09T10:40:00.975Z,42.47
2023-02-09T10:45:23.622Z,38.25
2023-02-09T10:50:25.368Z,41.65
2023-02-09T10:55:40.386Z,42.97
2023-02-09T11:00:41.950Z,40.35
2023-02-09T11:05:45.711Z,51.00
2023-02-09T11:11:08.117Z,46.05
2023-02-09T11:16:28.438Z,52.35
2023-02-09T11:21:40.905Z,46.63
2023-02-09T11:26:50.796Z,50.65
2023-02-09T11:32:20.634Z,49.17
2023-02-09T11:37:28.277Z,54.70
2023-02-09T11:42:44.607Z,47.25
2023-02-09T11:48:13.832Z,46.50
2023-02-09T11:53:33.642Z,45.78
2023-02-09T11:58:44.490Z,39.25
2023-02-09T12:04:18.609Z,43.55
2023-02-09T12:09:36.626Z,43.15
2023-02-09T12:14:49.017Z,45.20
2023-02-09T12:20:01.401Z,44.55
2023-02-09T12:25:12.183Z,43.80
2023-02-09T12:30:44.967Z,51.17
2023-02-09T12:41:29.390Z,45.38
2023-02-09T12:46:31.196Z,42.15
2023-02-09T12:51:42.043Z,48.50
2023-02-09T12:56:43.762Z,45.30
2023-02-09T13:02:04.161Z,45.40
2023-02-09T13:07:15.041Z,53.47
2023-02-09T13:12:22.249Z,47.42
2023-02-09T13:17:35.074Z,44.53
2023-02-09T13:23:32.040Z,42.30
2023-02-09T13:28:33.690Z,45.10
2023-02-09T13:33:47.453Z,40.65
2023-02-09T13:38:49.374Z,43.85
2023-02-09T13:43:51.033Z,51.13
2023-02-09T13:48:52.933Z,44.03
2023-02-09T13:54:00.963Z,44.70
2023-02-09T13:59:02.713Z,46.22
2023-02-09T14:04:11.923Z,44.28
2023-02-09T14:09:20.778Z,41.30
2023-02-09T14:14:28.382Z,46.03
2023-02-09T14:19:33.434Z,49.10
2023-02-09T14:24:43.835Z,44.90
2023-02-09T14:29:48.705Z,44.63
2023-02-09T14:34:51.344Z,46.45
2023-02-09T14:40:06.275Z,44.55
2023-02-09T14:45:14.036Z,48.05
2023-02-09T14:50:18.856Z,45.13
2023-02-09T14:55:25.070Z,46.70
2023-02-09T15:00:28.994Z,46.03
2023-02-09T15:05:30.861Z,47.67
2023-02-09T15:10:38.329Z,54.10
2023-02-09T15:15:40.381Z,51.67
2023-02-09T15:20:41.987Z,51.17
2023-02-09T15:25:44.964Z,61.03
2023-02-09T15:30:47.190Z,51.38
2023-02-09T15:35:50.049Z,56.58
2023-02-09T15:46:13.422Z,55.55
2023-02-09T15:51:16.195Z,57.58
2023-02-09T16:01:20.900Z,57.05
2023-02-09T16:06:26.710Z,55.10
2023-02-09T16:11:35.206Z,65.65
2023-02-09T16:16:36.889Z,58.38
2023-02-09T16:21:40.602Z,58.27
2023-02-09T16:26:42.259Z,60.08
2023-02-09T16:31:44.297Z,58.38
2023-02-09T16:36:48.513Z,63.33
2023-02-09T16:41:50.754Z,62.97
2023-02-09T16:46:56.362Z,58.70
2023-02-09T16:52:02.444Z,62.08
2023-02-09T16:57:04.452Z,59.88
2023-02-09T17:02:40.692Z,67.85
2023-02-09T17:07:53.883Z,73.68
2023-02-09T17:12:57.758Z,70.55
2023-02-09T17:18:04.040Z,74.05
2023-02-09T17:23:05.766Z,72.65
2023-02-09T17:28:07.480Z,88.70
2023-02-09T17:33:16.047Z,69.67
2023-02-09T17:38:21.041Z,67.90
2023-02-09T17:43:23.836Z,71.80
2023-02-09T17:48:25.909Z,70.97
2023-02-09T17:53:32.214Z,66.67
2023-02-09T17:58:34.105Z,64.63
2023-02-09T18:03:35.711Z,63.67
2023-02-09T18:08:37.349Z,65.97
2023-02-09T18:13:39.589Z,61.77
2023-02-09T18:18:42.976Z,61.00
2023-02-09T18:23:44.906Z,61.33
2023-02-09T18:28:46.565Z,68.03
2023-02-09T18:33:48.542Z,58.60
2023-02-09T18:38:52.091Z,67.23
2023-02-09T18:43:54.501Z,67.57
2023-02-09T18:48:56.477Z,66.28
2023-02-09T18:53:58.893Z,61.03
2023-02-09T18:59:00.623Z,59.50
2023-02-09T19:04:02.646Z,59.20
2023-02-09T19:09:04.586Z,60.28
2023-02-09T19:14:24.547Z,64.93
2023-02-09T19:19:26.362Z,59.90
2023-02-09T19:24:28.252Z,67.82
2023-02-09T19:29:30.084Z,70.38
2023-02-09T19:34:35.121Z,77.40
2023-02-09T19:39:38.658Z,91.13
2023-02-09T19:44:40.306Z,80.72
2023-02-09T19:49:42.002Z,73.77
2023-02-09T19:54:43.673Z,72.72
2023-02-09T19:59:45.320Z,70.33
2023-02-09T20:04:47.094Z,62.77
2023-02-09T20:09:50.331Z,64.63
2023-02-09T20:14:53.967Z,61.78
2023-02-09T20:19:55.824Z,65.25
2023-02-09T20:24:57.654Z,63.55
2023-02-09T20:30:01.371Z,65.78
2023-02-09T20:35:04.923Z,72.43
2023-02-09T20:40:11.034Z,63.83
2023-02-09T20:45:35.826Z,71.40
2023-02-09T20:50:37.574Z,68.68
2023-02-09T20:55:39.336Z,69.72
2023-02-09T21:00:42.413Z,77.43
2023-02-09T21:05:44.187Z,65.90
2023-02-09T21:10:46.010Z,67.63
2023-02-09T21:15:48.696Z,65.47
2023-02-09T21:20:51.593Z,66.40
2023-02-09T21:26:04.725Z,67.78
2023-02-09T21:31:11.382Z,70.05
2023-02-09T21:36:13.751Z,69.35
2023-02-09T21:46:43.765Z,67.38
2023-02-09T21:51:45.570Z,71.35
2023-02-09T21:56:47.277Z,70.45
2023-02-09T22:01:48.983Z,73.78
2023-02-09T22:06:50.726Z,65.18
2023-02-09T22:11:52.389Z,64.47
2023-02-09T22:16:54.658Z,71.10
2023-02-09T22:26:59.881Z,71.53
2023-02-09T22:32:01.739Z,61.28
2023-02-09T22:37:04.228Z,64.22
2023-02-09T22:42:05.982Z,70.63
2023-02-09T22:47:07.891Z,68.55
2023-02-09T22:52:09.604Z,67.80
2023-02-09T22:57:11.473Z,67.03
2023-02-09T23:02:13.226Z,72.68
2023-02-09T23:07:14.891Z,58.65
2023-02-09T23:12:16.511Z,64.72
2023-02-09T23:17:18.160Z,71.25
2023-02-09T23:22:19.959Z,68.78
2023-02-09T23:27:22.091Z,72.78
2023-02-09T23:32:23.699Z,71.43
2023-02-09T23:37:37.325Z,80.40
2023-02-09T23:42:39.605Z,69.55
2023-02-09T23:47:41.325Z,73.20
2023-02-09T23:52:43.029Z,72.20
2023-02-09T23:57:44.890Z,76.82
